Time;durP1;ratioP1;P1;durP2;ratioP2;P2;SDS_P1;SDS_P2;PMS_P1;PMS_P2;Temp;Humidity;BMP_temperature;BMP_pressure;BME280_temperature;BME280_humidity;BME280_pressure;Samples;Min_cycle;Max_cycle;Signal;HPM_P1;HPM_P2
2022/02/21 00:00:50;;;;;;;9.73;1.95;;;8.30;99.90;;;;;;5054769;28;20539;-67
2022/02/21 00:03:22;;;;;;;10.32;2.17;;;8.20;99.90;;;;;;5095404;28;20116;-67
2022/02/21 00:05:51;;;;;;;11.35;2.33;;;8.20;99.90;;;;;;5076826;28;20063;-67
2022/02/21 00:08:17;;;;;;;12.02;2.70;;;8.20;99.90;;;;;;5075423;28;20086;-67
2022/02/21 00:10:43;;;;;;;10.60;2.50;;;8.20;99.90;;;;;;5094260;28;20082;-67
2022/02/21 00:13:10;;;;;;;9.85;2.10;;;8.20;99.90;;;;;;5095622;28;20032;-67
2022/02/21 00:15:35;;;;;;;13.43;2.35;;;8.20;99.90;;;;;;5075507;28;20037;-68
2022/02/21 00:18:01;;;;;;;18.30;2.88;;;8.20;99.90;;;;;;5074876;28;20040;-67
2022/02/21 00:20:28;;;;;;;14.90;3.00;;;8.10;99.90;;;;;;5108668;28;20035;-68
2022/02/21 00:22:53;;;;;;;18.25;3.90;;;8.00;99.90;;;;;;5095160;28;20033;-68
2022/02/21 00:25:19;;;;;;;19.00;3.33;;;7.90;99.90;;;;;;5094835;28;20031;-67
2022/02/21 00:27:45;;;;;;;19.50;4.00;;;7.80;99.90;;;;;;5094833;28;20039;-68
2022/02/21 00:30:11;;;;;;;17.35;3.42;;;7.80;99.90;;;;;;5075250;28;20028;-68
2022/02/21 00:32:37;;;;;;;22.92;3.85;;;7.80;99.90;;;;;;5088699;28;20074;-68
2022/02/21 00:35:04;;;;;;;19.05;4.60;;;7.70;99.90;;;;;;5086298;28;20058;-67
2022/02/21 00:37:30;;;;;;;23.92;4.80;;;7.60;99.90;;;;;;5079042;28;20036;-68
2022/02/21 00:39:55;;;;;;;18.33;4.85;;;7.60;99.90;;;;;;5091596;28;20332;-68
2022/02/21 00:42:22;;;;;;;27.90;4.18;;;7.60;99.90;;;;;;5095252;28;20032;-68
2022/02/21 00:44:59;;;;;;;18.52;5.30;;;7.50;99.90;;;;;;5093799;28;20784;-67
2022/02/21 00:47:28;;;;;;;19.08;4.75;;;7.50;99.90;;;;;;5083361;28;20044;-67
2022/02/21 00:49:54;;;;;;;19.65;4.63;;;7.50;99.90;;;;;;5094294;28;20036;-68
2022/02/21 00:52:21;;;;;;;22.77;4.13;;;7.50;99.90;;;;;;5093203;28;20486;-68
2022/02/21 00:54:48;;;;;;;23.92;5.22;;;7.50;99.90;;;;;;5074456;28;20034;-68
2022/02/21 00:57:17;;;;;;;24.73;4.10;;;7.50;99.90;;;;;;5087183;28;20067;-68
2022/02/21 00:59:44;;;;;;;16.13;3.55;;;7.50;99.90;;;;;;5081967;28;20039;-67
2022/02/21 01:02:10;;;;;;;22.90;4.38;;;7.60;99.90;;;;;;5094254;28;20047;-68
2022/02/21 01:04:36;;;;;;;21.23;4.72;;;7.60;99.90;;;;;;5094708;28;20111;-68
2022/02/21 01:07:02;;;;;;;16.67;3.63;;;7.60;99.90;;;;;;5077759;28;20098;-68
2022/02/21 01:09:27;;;;;;;17.83;3.85;;;7.60;99.90;;;;;;5083653;28;20054;-68
2022/02/21 01:11:56;;;;;;;21.60;4.28;;;7.60;99.90;;;;;;5093105;28;20043;-68
2022/02/21 01:14:22;;;;;;;20.15;4.38;;;7.60;99.90;;;;;;5096974;28;20450;-68
2022/02/21 01:16:47;;;;;;;19.77;4.43;;;7.50;99.90;;;;;;5094856;28;20028;-68
2022/02/21 01:19:13;;;;;;;24.80;4.07;;;7.50;99.90;;;;;;5098193;28;20028;-68
2022/02/21 01:21:39;;;;;;;20.77;4.90;;;7.50;99.80;;;;;;5098902;28;20027;-68
2022/02/21 01:24:04;;;;;;;18.00;2.97;;;7.50;99.80;;;;;;5084440;28;20028;-68
2022/02/21 01:26:30;;;;;;;26.13;5.25;;;7.50;99.70;;;;;;5094504;28;20078;-67
2022/02/21 01:28:56;;;;;;;23.00;4.80;;;7.60;99.60;;;;;;5099309;28;20395;-68
2022/02/21 01:31:22;;;;;;;16.67;3.78;;;7.50;99.60;;;;;;5098833;28;20031;-68
2022/02/21 01:33:48;;;;;;;22.23;4.70;;;7.40;99.50;;;;;;5088790;28;20028;-68
2022/02/21 01:36:13;;;;;;;18.55;4.47;;;7.30;99.50;;;;;;5073856;28;20042;-68
2022/02/21 01:38:39;;;;;;;19.63;4.63;;;7.20;99.50;;;;;;5093398;28;20074;-68
2022/02/21 01:41:05;;;;;;;18.50;4.13;;;7.20;99.40;;;;;;5089321;28;20776;-68
2022/02/21 01:43:31;;;;;;;15.23;4.10;;;7.20;99.50;;;;;;5085044;28;20047;-68
2022/02/21 01:45:57;;;;;;;25.45;4.43;;;7.20;99.40;;;;;;5087939;28;20415;-68
2022/02/21 01:48:22;;;;;;;30.30;5.07;;;7.20;99.30;;;;;;5075030;28;20047;-68
2022/02/21 01:50:49;;;;;;;16.80;4.05;;;7.20;99.10;;;;;;5083181;28;20384;-68
2022/02/21 01:53:18;;;;;;;26.05;4.85;;;7.20;99.20;;;;;;5092637;28;20040;-69
2022/02/21 01:55:44;;;;;;;24.13;5.18;;;7.10;99.10;;;;;;5093156;28;20066;-68
2022/02/21 01:58:11;;;;;;;15.95;3.92;;;7.00;98.90;;;;;;5093323;28;20031;-68
2022/02/21 02:00:37;;;;;;;15.98;3.38;;;7.00;99.10;;;;;;5093631;28;20036;-68
2022/02/21 02:03:05;;;;;;;20.42;4.68;;;6.80;98.90;;;;;;5091611;28;20503;-68
2022/02/21 02:05:34;;;;;;;19.83;5.13;;;6.80;99.10;;;;;;5093521;28;20029;-68
2022/02/21 02:08:01;;;;;;;11.82;3.00;;;6.70;99.00;;;;;;5092517;28;20020;-68
2022/02/21 02:10:28;;;;;;;16.33;3.88;;;6.80;99.10;;;;;;5092871;28;20101;-67
2022/02/21 02:12:53;;;;;;;18.45;4.72;;;6.70;99.10;;;;;;5088740;28;20032;-68
2022/02/21 02:15:19;;;;;;;26.70;3.55;;;6.70;99.30;;;;;;5074293;28;20029;-68
2022/02/21 02:17:45;;;;;;;17.45;4.72;;;6.80;99.20;;;;;;5092482;28;20032;-67
2022/02/21 02:20:12;;;;;;;26.45;5.38;;;6.80;99.10;;;;;;5093440;28;20387;-67
2022/02/21 02:22:39;;;;;;;21.77;4.47;;;6.80;99.10;;;;;;5099065;28;20103;-68
2022/02/21 02:25:06;;;;;;;27.60;6.20;;;6.70;99.10;;;;;;5086071;28;20024;-68
2022/02/21 02:27:32;;;;;;;22.75;4.47;;;6.70;99.00;;;;;;5100422;28;20039;-68
2022/02/21 02:29:59;;;;;;;23.10;5.10;;;6.60;99.10;;;;;;5096971;28;20039;-68
2022/02/21 02:32:26;;;;;;;19.27;4.75;;;6.60;98.90;;;;;;5092547;28;20035;-68
2022/02/21 02:34:52;;;;;;;19.15;3.78;;;6.60;98.80;;;;;;5095724;28;20051;-68
2022/02/21 02:37:21;;;;;;;13.07;3.83;;;6.50;98.70;;;;;;5092067;28;20090;-68
2022/02/21 02:39:47;;;;;;;18.00;4.07;;;6.50;98.60;;;;;;5092896;28;20090;-68
2022/02/21 02:42:12;;;;;;;20.48;4.38;;;6.40;98.60;;;;;;5097089;28;20019;-68
2022/02/21 02:44:38;;;;;;;18.38;5.03;;;6.40;98.60;;;;;;5091998;28;20081;-67
2022/02/21 02:47:06;;;;;;;28.08;4.10;;;6.40;98.60;;;;;;5092608;28;20028;-68
2022/02/21 02:49:32;;;;;;;17.63;4.10;;;6.40;98.70;;;;;;5091527;28;20040;-68
2022/02/21 02:51:57;;;;;;;22.92;4.93;;;6.30;98.80;;;;;;5091630;28;20028;-68
2022/02/21 02:54:24;;;;;;;24.00;5.00;;;6.30;98.70;;;;;;5092760;28;20036;-68
2022/02/21 02:56:50;;;;;;;23.50;4.25;;;6.30;98.80;;;;;;5092638;28;20028;-68
2022/02/21 02:59:16;;;;;;;22.88;3.45;;;6.30;98.80;;;;;;5082887;28;20384;-68
2022/02/21 03:01:41;;;;;;;14.40;3.53;;;6.30;98.90;;;;;;5081233;28;20109;-68
2022/02/21 03:04:08;;;;;;;17.13;2.88;;;6.40;98.80;;;;;;5085573;28;20036;-67
2022/02/21 03:06:34;;;;;;;17.20;2.97;;;6.50;98.90;;;;;;5072021;28;20393;-68
2022/02/21 03:09:00;;;;;;;28.30;4.65;;;6.70;98.80;;;;;;5077282;28;20043;-68
2022/02/21 03:11:26;;;;;;;18.35;3.22;;;6.70;98.40;;;;;;5091742;28;20052;-67
2022/02/21 03:13:52;;;;;;;21.13;4.32;;;6.70;98.40;;;;;;5091662;28;20793;-68
2022/02/21 03:16:18;;;;;;;17.60;3.63;;;6.70;98.50;;;;;;5092410;28;20107;-68
2022/02/21 03:18:44;;;;;;;20.77;5.20;;;6.60;98.50;;;;;;5091526;28;20123;-68
2022/02/21 03:21:10;;;;;;;15.45;3.95;;;6.60;98.50;;;;;;5095470;28;20019;-68
2022/02/21 03:23:36;;;;;;;19.75;4.38;;;6.50;98.60;;;;;;5092272;28;20028;-68
2022/02/21 03:26:01;;;;;;;30.70;5.20;;;6.50;98.70;;;;;;5078557;28;20036;-68
2022/02/21 03:28:27;;;;;;;25.52;6.18;;;6.40;98.80;;;;;;5078527;28;20134;-68
2022/02/21 03:30:53;;;;;;;26.70;4.30;;;6.40;98.70;;;;;;5092046;28;20115;-68
2022/02/21 03:33:19;;;;;;;25.38;5.13;;;6.30;98.70;;;;;;5089363;28;20087;-68
2022/02/21 03:35:45;;;;;;;20.77;3.92;;;6.30;98.70;;;;;;5083596;28;20067;-68
2022/02/21 03:38:11;;;;;;;22.42;4.90;;;6.30;98.70;;;;;;5092587;28;20476;-68
2022/02/21 03:40:37;;;;;;;19.60;4.60;;;6.20;98.70;;;;;;5091201;28;20028;-68
2022/02/21 03:43:02;;;;;;;26.88;3.90;;;6.20;98.70;;;;;;5088529;28;20114;-68
2022/02/21 03:45:31;;;;;;;15.73;4.50;;;6.10;98.70;;;;;;5088732;28;20027;-68
2022/02/21 03:47:57;;;;;;;24.02;4.82;;;6.10;98.80;;;;;;5085347;28;20467;-68
2022/02/21 03:50:23;;;;;;;26.75;5.50;;;6.10;98.70;;;;;;5087320;28;20388;-68
2022/02/21 03:52:49;;;;;;;29.17;5.75;;;6.10;98.80;;;;;;5088685;28;20063;-68
2022/02/21 03:55:15;;;;;;;18.73;3.83;;;6.10;98.80;;;;;;5088053;28;20056;-68
2022/02/21 03:57:41;;;;;;;17.45;3.88;;;6.00;98.80;;;;;;5091323;28;20048;-68
2022/02/21 04:00:12;;;;;;;27.25;4.63;;;6.00;98.80;;;;;;5090399;28;20391;-68
2022/02/21 04:02:39;;;;;;;23.52;4.80;;;6.10;98.60;;;;;;5090348;28;20062;-68
2022/02/21 04:05:05;;;;;;;26.60;4.45;;;6.00;98.40;;;;;;5094412;28;20024;-68
2022/02/21 04:07:31;;;;;;;18.75;5.10;;;6.00;98.40;;;;;;5094922;28;20043;-68
2022/02/21 04:09:57;;;;;;;20.35;4.47;;;5.90;98.30;;;;;;5094155;28;20085;-68
2022/02/21 04:12:23;;;;;;;19.50;4.45;;;6.00;98.40;;;;;;5092080;28;20425;-67
2022/02/21 04:14:49;;;;;;;23.80;4.40;;;6.00;98.50;;;;;;5094578;28;20035;-68
2022/02/21 04:17:17;;;;;;;24.38;3.80;;;6.00;98.40;;;;;;5094153;28;20062;-68
2022/02/21 04:19:46;;;;;;;9.52;2.63;;;6.00;98.30;;;;;;5091902;28;20031;-68
2022/02/21 04:22:12;;;;;;;28.48;5.13;;;5.90;98.40;;;;;;5105611;28;20035;-68
2022/02/21 04:24:38;;;;;;;24.95;5.22;;;6.00;98.50;;;;;;5094657;28;20039;-67
2022/02/21 04:27:05;;;;;;;23.85;4.40;;;5.90;98.50;;;;;;5095073;28;20055;-68
2022/02/21 04:29:31;;;;;;;20.05;4.35;;;5.90;98.50;;;;;;5095447;28;20047;-68
2022/02/21 04:31:57;;;;;;;20.70;4.45;;;5.90;98.50;;;;;;5081295;28;20020;-68
2022/02/21 04:34:22;;;;;;;21.65;4.80;;;5.90;98.60;;;;;;5090090;28;20480;-68
2022/02/21 04:36:48;;;;;;;22.80;4.80;;;5.90;98.50;;;;;;5090902;28;20467;-68
2022/02/21 04:39:14;;;;;;;20.50;4.75;;;5.80;98.60;;;;;;5095295;28;20036;-68
2022/02/21 04:41:39;;;;;;;22.27;4.90;;;5.80;98.60;;;;;;5094850;28;20090;-68
2022/02/21 04:44:08;;;;;;;24.27;4.32;;;5.80;98.60;;;;;;5094561;28;20028;-68
2022/02/21 04:46:34;;;;;;;26.52;5.43;;;5.80;98.70;;;;;;5094986;28;20274;-68
2022/02/21 04:48:59;;;;;;;20.73;4.03;;;5.70;98.70;;;;;;5094910;28;20040;-68
2022/02/21 04:51:25;;;;;;;20.83;5.22;;;5.70;98.70;;;;;;5088362;28;20024;-68
2022/02/21 04:53:51;;;;;;;22.02;4.53;;;5.60;98.70;;;;;;5087091;28;20043;-68
2022/02/21 04:56:17;;;;;;;18.55;5.53;;;5.60;98.60;;;;;;5088662;28;20021;-68
2022/02/21 04:58:45;;;;;;;24.08;4.63;;;5.60;98.60;;;;;;5086943;28;20024;-68
2022/02/21 05:01:11;;;;;;;24.95;4.85;;;5.60;98.70;;;;;;5074582;28;20126;-67
2022/02/21 05:03:37;;;;;;;19.00;4.70;;;5.60;98.70;;;;;;5088230;28;20075;-68
2022/02/21 05:06:10;;;;;;;20.63;4.60;;;5.60;98.60;;;;;;5093974;28;20055;-68
2022/02/21 05:08:35;;;;;;;13.10;4.22;;;5.50;98.50;;;;;;5094223;28;20047;-68
2022/02/21 05:11:01;;;;;;;18.67;4.55;;;5.50;98.60;;;;;;5085876;28;20032;-68
2022/02/21 05:13:27;;;;;;;30.58;4.93;;;5.50;98.70;;;;;;5086841;28;20470;-68
2022/02/21 05:15:52;;;;;;;17.70;3.85;;;5.50;98.70;;;;;;5083230;28;20164;-68
2022/02/21 05:18:18;;;;;;;22.00;4.78;;;5.50;98.70;;;;;;5094226;28;20035;-68
2022/02/21 05:20:44;;;;;;;17.65;3.63;;;5.50;98.80;;;;;;5093576;28;20061;-68
2022/02/21 05:23:09;;;;;;;23.92;4.93;;;5.60;98.80;;;;;;5097759;28;20041;-68
2022/02/21 05:25:35;;;;;;;22.55;4.32;;;5.60;98.80;;;;;;5094041;28;20031;-68
2022/02/21 05:28:00;;;;;;;23.88;5.20;;;5.60;98.80;;;;;;5092216;28;20070;-68
2022/02/21 05:30:26;;;;;;;13.30;3.60;;;5.60;98.70;;;;;;5083811;28;20056;-68
2022/02/21 05:32:52;;;;;;;19.73;5.65;;;5.60;98.70;;;;;;5091381;28;20026;-68
2022/02/21 05:35:20;;;;;;;18.25;4.90;;;5.50;98.80;;;;;;5094815;28;20036;-68
2022/02/21 05:37:47;;;;;;;18.02;4.32;;;5.60;98.80;;;;;;5086888;28;20035;-68
2022/02/21 05:40:13;;;;;;;21.95;3.75;;;5.50;98.80;;;;;;5083744;28;20043;-68
2022/02/21 05:42:39;;;;;;;21.75;4.25;;;5.60;98.80;;;;;;5080249;28;20028;-68
2022/02/21 05:45:05;;;;;;;21.60;5.18;;;5.60;98.70;;;;;;5093936;28;20032;-68
2022/02/21 05:47:31;;;;;;;20.00;4.82;;;5.60;98.60;;;;;;5093048;28;20103;-68
2022/02/21 05:49:56;;;;;;;19.20;4.07;;;5.60;98.60;;;;;;5093481;28;20592;-68
2022/02/21 05:52:22;;;;;;;22.20;4.43;;;5.60;98.60;;;;;;5093493;28;20052;-68
2022/02/21 05:54:48;;;;;;;21.23;4.38;;;5.60;98.60;;;;;;5092905;28;20032;-68
2022/02/21 05:57:13;;;;;;;26.05;4.57;;;5.60;98.60;;;;;;5093350;28;20046;-68
2022/02/21 05:59:39;;;;;;;24.00;4.60;;;5.60;98.70;;;;;;5093576;28;20040;-68
2022/02/21 06:02:04;;;;;;;21.02;3.40;;;5.60;98.60;;;;;;5091693;28;20044;-68
2022/02/21 06:04:30;;;;;;;21.98;4.40;;;5.60;98.60;;;;;;5081118;28;20032;-68
2022/02/21 06:06:56;;;;;;;29.83;6.15;;;5.70;98.60;;;;;;5093236;28;20039;-68
2022/02/21 06:09:21;;;;;;;23.95;5.93;;;5.70;98.50;;;;;;5084458;28;20040;-68
2022/02/21 06:11:47;;;;;;;25.33;4.72;;;5.70;98.60;;;;;;5073437;28;20058;-68
2022/02/21 06:14:13;;;;;;;18.13;4.57;;;5.60;98.80;;;;;;5084987;28;20037;-68
2022/02/21 06:16:41;;;;;;;19.77;4.70;;;5.60;98.90;;;;;;5087689;28;20380;-68
2022/02/21 06:19:07;;;;;;;29.42;5.22;;;5.60;99.00;;;;;;5093410;28;20114;-68
2022/02/21 06:21:33;;;;;;;22.83;5.35;;;5.70;99.00;;;;;;5093774;28;20067;-68
2022/02/21 06:23:59;;;;;;;21.70;4.93;;;5.60;98.90;;;;;;5087509;28;20071;-68
2022/02/21 06:26:24;;;;;;;22.23;5.55;;;5.60;99.20;;;;;;5078798;28;20032;-68
2022/02/21 06:28:50;;;;;;;19.98;4.53;;;5.60;99.10;;;;;;5092347;28;20039;-68
2022/02/21 06:31:16;;;;;;;22.48;5.68;;;5.60;99.20;;;;;;5078167;28;20031;-68
2022/02/21 06:33:41;;;;;;;24.60;4.53;;;5.50;99.20;;;;;;5094131;28;20126;-68
2022/02/21 06:36:07;;;;;;;23.95;4.85;;;5.50;99.20;;;;;;5092031;28;20372;-68
2022/02/21 06:38:37;;;;;;;23.27;5.13;;;5.50;99.20;;;;;;5092036;28;20036;-68
2022/02/21 06:41:03;;;;;;;23.17;4.80;;;5.50;99.10;;;;;;5093107;28;20021;-68
2022/02/21 06:43:29;;;;;;;19.60;5.07;;;5.40;99.10;;;;;;5078792;28;20712;-67
2022/02/21 06:45:57;;;;;;;19.27;4.28;;;5.40;99.10;;;;;;5092924;28;20479;-67
2022/02/21 06:48:24;;;;;;;24.88;4.97;;;5.40;99.10;;;;;;5092475;28;20429;-68
2022/02/21 06:50:50;;;;;;;25.65;5.05;;;5.50;99.10;;;;;;5091796;28;20426;-67
2022/02/21 06:53:16;;;;;;;23.63;4.80;;;5.50;99.00;;;;;;5092804;28;20082;-68
2022/02/21 06:55:41;;;;;;;24.95;5.18;;;5.50;99.00;;;;;;5092629;28;20032;-67
2022/02/21 06:58:10;;;;;;;15.13;3.60;;;5.50;98.90;;;;;;5092323;28;20110;-72
2022/02/21 07:00:37;;;;;;;20.10;4.22;;;5.50;98.90;;;;;;5092537;28;20039;-68
2022/02/21 07:03:02;;;;;;;21.10;4.90;;;5.60;98.90;;;;;;5092472;28;20097;-68
2022/02/21 07:05:28;;;;;;;20.55;5.22;;;5.60;99.10;;;;;;5087512;28;20036;-68
2022/02/21 07:07:53;;;;;;;16.67;3.42;;;5.60;98.80;;;;;;5090261;28;20012;-68
2022/02/21 07:10:19;;;;;;;17.65;4.55;;;5.70;98.70;;;;;;5090745;28;20039;-68
2022/02/21 07:12:45;;;;;;;21.75;5.63;;;5.70;98.70;;;;;;5086604;28;20020;-68
2022/02/21 07:15:11;;;;;;;19.40;4.55;;;5.70;98.70;;;;;;5089644;28;20066;-68
2022/02/21 07:17:39;;;;;;;25.45;4.10;;;5.70;98.70;;;;;;5090196;28;20494;-68
2022/02/21 07:20:06;;;;;;;25.92;5.18;;;5.70;98.70;;;;;;5091310;28;20081;-68
2022/02/21 07:22:32;;;;;;;25.00;5.70;;;5.70;98.60;;;;;;5098597;28;20085;-68
2022/02/21 07:24:57;;;;;;;26.77;5.35;;;5.70;98.60;;;;;;5092223;28;20107;-69
2022/02/21 07:27:23;;;;;;;16.70;4.28;;;5.70;98.60;;;;;;5091954;28;20379;-68
2022/02/21 07:29:49;;;;;;;19.23;4.10;;;5.60;98.70;;;;;;5091586;28;20042;-68
2022/02/21 07:32:14;;;;;;;20.90;4.68;;;5.70;98.80;;;;;;5088797;28;20380;-68
2022/02/21 07:34:40;;;;;;;22.92;6.15;;;5.70;98.80;;;;;;5096864;28;20115;-68
2022/02/21 07:37:07;;;;;;;28.70;5.85;;;5.70;98.80;;;;;;5089381;28;20032;-68
2022/02/21 07:39:33;;;;;;;31.45;4.80;;;5.70;98.80;;;;;;5075557;28;20531;-68
2022/02/21 07:41:59;;;;;;;23.63;4.40;;;5.70;98.90;;;;;;5092323;28;20429;-68
2022/02/21 07:44:25;;;;;;;20.85;4.60;;;5.70;98.90;;;;;;5086667;28;20025;-68
2022/02/21 07:46:51;;;;;;;36.75;5.82;;;5.70;98.80;;;;;;5091698;28;20724;-68
2022/02/21 07:49:18;;;;;;;25.67;4.88;;;5.80;98.70;;;;;;5096243;28;20040;-68
2022/02/21 07:51:43;;;;;;;19.73;4.18;;;5.80;98.70;;;;;;5088020;28;20107;-68
2022/02/21 07:54:09;;;;;;;22.77;5.80;;;5.80;98.70;;;;;;5075155;28;20116;-69
2022/02/21 07:56:34;;;;;;;22.15;4.90;;;5.80;98.60;;;;;;5088186;28;20369;-68
2022/02/21 07:59:03;;;;;;;21.38;4.97;;;5.80;98.60;;;;;;5089025;28;20061;-68
2022/02/21 08:01:29;;;;;;;16.73;4.22;;;5.70;98.70;;;;;;5091433;28;20043;-68
2022/02/21 08:03:55;;;;;;;32.05;5.78;;;5.80;98.80;;;;;;5095079;28;20546;-68
2022/02/21 08:06:20;;;;;;;23.30;4.50;;;5.80;98.70;;;;;;5095699;28;20048;-68
2022/02/21 08:08:47;;;;;;;18.15;4.75;;;5.80;98.70;;;;;;5092413;28;20073;-68
2022/02/21 08:11:13;;;;;;;23.38;4.50;;;5.80;98.70;;;;;;5092049;28;20032;-67
2022/02/21 08:13:38;;;;;;;20.77;5.25;;;5.80;98.80;;;;;;5093647;28;20406;-68
2022/02/21 08:16:04;;;;;;;16.52;4.40;;;5.80;98.60;;;;;;5089246;28;20502;-68
2022/02/21 08:18:32;;;;;;;15.85;4.68;;;5.80;98.60;;;;;;5087597;28;20051;-68
2022/02/21 08:20:58;;;;;;;22.85;4.57;;;5.90;98.60;;;;;;5092269;28;20397;-68
2022/02/21 08:23:24;;;;;;;27.15;5.65;;;5.90;98.60;;;;;;5094646;28;20028;-68
2022/02/21 08:25:49;;;;;;;19.77;4.57;;;5.90;98.50;;;;;;5094459;28;20030;-68
2022/02/21 08:28:15;;;;;;;29.98;4.82;;;5.90;98.70;;;;;;5085683;28;20034;-69
2022/02/21 08:30:41;;;;;;;22.30;4.00;;;5.90;99.00;;;;;;5092164;28;20109;-68
2022/02/21 08:33:06;;;;;;;13.65;3.88;;;6.00;98.80;;;;;;5093432;28;20093;-68
2022/02/21 08:35:32;;;;;;;21.63;4.45;;;6.00;98.80;;;;;;5093446;28;20032;-69
2022/02/21 08:38:02;;;;;;;18.15;3.67;;;6.00;98.80;;;;;;5096980;28;20110;-69
2022/02/21 08:40:27;;;;;;;14.15;3.65;;;6.00;99.00;;;;;;5094719;28;20087;-69
2022/02/21 08:42:53;;;;;;;19.20;3.97;;;5.90;99.20;;;;;;5093954;28;20059;-69
2022/02/21 08:45:19;;;;;;;25.90;5.45;;;5.80;99.40;;;;;;5081312;28;20369;-67
2022/02/21 08:47:45;;;;;;;11.85;3.60;;;5.80;99.50;;;;;;5094762;28;20024;-67
2022/02/21 08:50:11;;;;;;;14.57;3.65;;;5.80;99.60;;;;;;5086378;28;20089;-67
2022/02/21 08:52:41;;;;;;;12.43;3.10;;;5.70;99.70;;;;;;5094598;28;20032;-67
2022/02/21 08:55:15;;;;;;;12.90;3.17;;;5.70;99.90;;;;;;5092637;28;20414;-67
2022/02/21 08:57:41;;;;;;;8.13;2.72;;;5.80;99.90;;;;;;5073724;28;20115;-67
2022/02/21 09:00:08;;;;;;;9.98;2.33;;;5.70;99.90;;;;;;5089945;28;20039;-67
2022/02/21 09:02:35;;;;;;;9.95;2.70;;;5.70;99.90;;;;;;5088646;28;20404;-66
2022/02/21 09:05:00;;;;;;;8.80;2.65;;;5.60;99.90;;;;;;5085949;28;20035;-67
2022/02/21 09:07:26;;;;;;;9.00;1.75;;;5.60;99.90;;;;;;5094335;28;20016;-67
2022/02/21 09:09:54;;;;;;;9.15;1.83;;;5.60;99.90;;;;;;5089437;28;20068;-67
2022/02/21 09:12:21;;;;;;;6.88;1.60;;;5.50;99.90;;;;;;5093561;28;20028;-67
2022/02/21 09:14:56;;;;;;;2.72;1.00;;;5.50;99.90;;;;;;5090011;28;20037;-67
2022/02/21 09:17:22;;;;;;;7.22;1.20;;;5.50;99.80;;;;;;5094142;28;20070;-67
2022/02/21 09:19:51;;;;;;;7.07;1.90;;;5.50;99.70;;;;;;5093757;28;20110;-67
2022/02/21 09:22:17;;;;;;;3.30;1.20;;;5.60;99.60;;;;;;5094403;28;20060;-67
2022/02/21 09:24:43;;;;;;;4.82;0.93;;;5.60;99.30;;;;;;5090398;28;20051;-67
2022/02/21 09:27:08;;;;;;;1.65;0.70;;;5.70;99.20;;;;;;5090373;28;20020;-67
2022/02/21 09:29:35;;;;;;;5.03;1.10;;;5.70;99.10;;;;;;5094074;28;20068;-67
2022/02/21 09:32:01;;;;;;;2.05;1.40;;;5.80;99.00;;;;;;5093533;28;20027;-67
2022/02/21 09:34:26;;;;;;;4.57;1.27;;;5.80;98.70;;;;;;5095938;28;20037;-67
2022/02/21 09:36:52;;;;;;;2.03;0.88;;;5.80;98.60;;;;;;5090655;28;20050;-67
2022/02/21 09:39:18;;;;;;;3.03;1.23;;;5.90;98.50;;;;;;5093216;28;20024;-68
2022/02/21 09:41:44;;;;;;;3.10;0.85;;;5.90;98.30;;;;;;5076951;28;20017;-67
2022/02/21 09:44:10;;;;;;;2.60;0.73;;;5.90;98.20;;;;;;5085463;28;20027;-67
2022/02/21 09:46:38;;;;;;;1.75;0.98;;;5.80;98.20;;;;;;5086909;28;20037;-67
2022/02/21 09:49:07;;;;;;;4.15;0.93;;;5.80;98.20;;;;;;5085995;28;20090;-68
2022/02/21 09:51:33;;;;;;;1.48;1.05;;;5.80;98.10;;;;;;5092610;28;20032;-68
2022/02/21 09:53:59;;;;;;;4.80;0.82;;;5.80;98.10;;;;;;5092887;28;20465;-67
2022/02/21 09:56:25;;;;;;;2.95;0.93;;;5.80;98.10;;;;;;5093395;28;20020;-67
2022/02/21 09:58:55;;;;;;;0.68;0.65;;;5.70;98.10;;;;;;5079911;28;20055;-67
2022/02/21 10:01:29;;;;;;;3.00;1.10;;;5.80;98.10;;;;;;5091958;28;20115;-68
2022/02/21 10:03:57;;;;;;;2.42;1.10;;;5.70;98.10;;;;;;5092923;28;20077;-66
2022/02/21 10:06:29;;;;;;;2.17;0.90;;;5.60;98.30;;;;;;5087166;28;20028;-67
2022/02/21 10:09:04;;;;;;;1.48;1.00;;;5.60;98.10;;;;;;5092529;28;20050;-67
2022/02/21 10:11:44;;;;;;;2.50;0.85;;;5.60;98.10;;;;;;5089911;28;20068;-67
2022/02/21 10:14:10;;;;;;;1.48;0.95;;;5.50;98.10;;;;;;5092769;28;20036;-67
2022/02/21 10:16:41;;;;;;;3.53;0.90;;;5.50;98.20;;;;;;5088744;28;20027;-67
2022/02/21 10:19:36;;;;;;;0.95;0.82;;;5.50;98.20;;;;;;5089532;28;20119;-66
2022/02/21 10:22:10;;;;;;;1.02;0.60;;;5.50;98.20;;;;;;5084252;28;20514;-66
2022/02/21 10:24:41;;;;;;;1.20;0.63;;;5.50;98.20;;;;;;5092197;28;20034;-67
2022/02/21 10:27:21;;;;;;;0.82;0.80;;;5.40;98.20;;;;;;5092221;28;20027;-67
2022/02/21 10:29:55;;;;;;;1.30;0.77;;;5.50;98.30;;;;;;5091353;28;20071;-67
2022/02/21 10:32:26;;;;;;;2.42;0.90;;;5.50;98.20;;;;;;5092137;28;20016;-67
2022/02/21 10:34:53;;;;;;;0.70;0.70;;;5.50;98.10;;;;;;5103529;28;20071;-70
2022/02/21 10:37:25;;;;;;;1.25;0.90;;;5.50;98.10;;;;;;5091988;28;20047;-66
2022/02/21 10:40:13;;;;;;;1.17;0.70;;;5.50;98.10;;;;;;5092787;28;20036;-67
2022/02/21 10:42:39;;;;;;;2.47;0.93;;;5.40;98.10;;;;;;5086990;28;20036;-66
2022/02/21 10:45:14;;;;;;;0.93;0.70;;;5.40;98.10;;;;;;5092997;28;20097;-66
2022/02/21 10:48:07;;;;;;;1.08;0.90;;;5.40;98.10;;;;;;5072571;28;20473;-66
2022/02/21 10:50:52;;;;;;;2.53;0.80;;;5.40;98.10;;;;;;5082127;28;20032;-67
2022/02/21 10:53:23;;;;;;;1.10;0.93;;;5.30;98.10;;;;;;5072821;28;20032;-66
2022/02/21 10:55:54;;;;;;;1.13;1.00;;;5.30;98.20;;;;;;5087859;28;20060;-65
2022/02/21 10:58:24;;;;;;;5.78;0.52;;;5.30;98.20;;;;;;5092161;28;20035;-67
2022/02/21 11:00:51;;;;;;;0.50;0.50;;;5.30;98.20;;;;;;5092226;28;20030;-65
2022/02/21 11:03:19;;;;;;;0.60;0.60;;;5.30;98.10;;;;;;5092659;28;20044;-66
2022/02/21 11:05:49;;;;;;;2.38;0.77;;;5.40;98.00;;;;;;5079914;28;20116;-67
2022/02/21 11:08:16;;;;;;;2.03;0.73;;;5.40;97.90;;;;;;5085527;28;20028;-66
2022/02/21 11:10:48;;;;;;;0.40;0.40;;;5.50;97.80;;;;;;5083745;28;20035;-66
2022/02/21 11:13:16;;;;;;;0.85;0.70;;;5.50;97.70;;;;;;5082486;28;20363;-67
2022/02/21 11:15:42;;;;;;;0.70;0.70;;;5.50;97.70;;;;;;5098928;28;20031;-67
2022/02/21 11:18:17;;;;;;;0.63;0.57;;;5.60;97.70;;;;;;5085413;28;20471;-67
2022/02/21 11:20:44;;;;;;;0.70;0.70;;;5.60;97.60;;;;;;5098204;28;20628;-68
2022/02/21 11:23:10;;;;;;;0.55;0.55;;;5.60;97.50;;;;;;5101794;28;20032;-67
2022/02/21 11:25:47;;;;;;;0.80;0.60;;;5.70;97.40;;;;;;5098449;28;20028;-68
2022/02/21 11:28:31;;;;;;;5.20;1.33;;;5.70;97.30;;;;;;5084898;28;20035;-67
2022/02/21 11:30:58;;;;;;;;;;;5.70;97.40;;;;;;5099506;28;20036;-68
2022/02/21 11:33:23;;;;;;;0.40;0.40;;;5.70;97.30;;;;;;5099292;28;19908;-69
2022/02/21 11:36:05;;;;;;;3.00;1.30;;;5.70;97.20;;;;;;5096986;28;20020;-68
2022/02/21 11:38:33;;;;;;;1.40;1.30;;;5.80;97.20;;;;;;5097305;28;20036;-68
2022/02/21 11:41:04;;;;;;;4.78;1.15;;;5.80;97.10;;;;;;5097204;28;20036;-68
2022/02/21 11:43:40;;;;;;;2.50;0.73;;;5.80;97.20;;;;;;5097181;28;20493;-67
2022/02/21 11:46:31;;;;;;;0.82;0.70;;;5.80;97.20;;;;;;5096691;28;20089;-71
2022/02/21 11:49:06;;;;;;;0.65;0.65;;;5.90;97.20;;;;;;5094733;28;20047;-69
2022/02/21 11:51:36;;;;;;;1.92;1.05;;;5.90;97.10;;;;;;5095837;28;20039;-69
2022/02/21 11:54:11;;;;;;;5.68;0.95;;;5.90;97.10;;;;;;5096279;28;20058;-71
2022/02/21 11:56:52;;;;;;;1.73;0.73;;;6.00;97.10;;;;;;5088841;28;20543;-70
2022/02/21 11:59:21;;;;;;;3.63;2.35;;;6.10;97.20;;;;;;5091603;28;20042;-67
2022/02/21 12:01:48;;;;;;;7.80;2.17;;;6.10;97.10;;;;;;5093761;28;20040;-68
2022/02/21 12:04:18;;;;;;;22.95;1.85;;;6.10;97.00;;;;;;5094692;28;20040;-68
2022/02/21 12:06:52;;;;;;;6.30;1.83;;;6.20;97.10;;;;;;5092470;28;20506;-68
2022/02/21 12:09:18;;;;;;;20.75;3.08;;;6.20;97.20;;;;;;5093068;28;20058;-68
2022/02/21 12:11:44;;;;;;;48.38;6.75;;;6.20;97.30;;;;;;5093441;28;20480;-68
2022/02/21 12:14:12;;;;;;;23.58;4.15;;;6.20;97.80;;;;;;5096232;28;20040;-69
2022/02/21 12:17:00;;;;;;;27.98;5.57;;;6.20;97.70;;;;;;5096970;28;20028;-69
2022/02/21 12:19:30;;;;;;;21.63;3.75;;;6.30;98.40;;;;;;5096487;28;20048;-68
2022/02/21 12:22:10;;;;;;;29.20;3.65;;;6.30;98.20;;;;;;5091191;28;20505;-68
2022/02/21 12:25:19;;;;;;;9.43;3.53;;;6.30;98.30;;;;;;5088927;28;20036;-68
2022/02/21 12:28:10;;;;;;;9.60;2.50;;;6.40;98.30;;;;;;5091658;28;20027;-68
2022/02/21 12:30:47;;;;;;;18.30;4.60;;;6.40;98.30;;;;;;5092947;28;20092;-68
2022/02/21 12:33:17;;;;;;;18.83;3.90;;;6.50;98.60;;;;;;5095699;28;20111;-68
2022/02/21 12:35:53;;;;;;;34.38;4.20;;;6.60;98.50;;;;;;5092767;28;20043;-69
2022/02/21 12:38:20;;;;;;;53.80;6.05;;;6.70;98.50;;;;;;5093169;28;20424;-68
2022/02/21 12:41:11;;;;;;;46.70;5.68;;;6.80;98.50;;;;;;5090665;28;20047;-67
2022/02/21 12:43:55;;;;;;;24.35;3.67;;;6.90;98.80;;;;;;5090885;28;20119;-67
2022/02/21 12:46:43;;;;;;;43.08;5.03;;;7.00;98.80;;;;;;5089617;28;20032;-67
2022/02/21 12:49:31;;;;;;;22.58;4.45;;;7.00;99.60;;;;;;5089199;28;20037;-66
2022/02/21 12:52:06;;;;;;;53.30;6.68;;;7.10;99.70;;;;;;5092671;28;20024;-66
2022/02/21 12:54:47;;;;;;;58.25;7.68;;;7.10;99.70;;;;;;5093060;28;20484;-67